sensor_id;sensor_type;location;lat;lon;timestamp;P1;durP1;ratioP1;P2;durP2;ratioP2
73315;SDS011;61545;53.726;-0.444;2022-08-07T00:04:22;4.3;;;1.1;;
73315;SDS011;61545;53.726;-0.444;2022-08-07T00:09:22;4.3;;;1.1;;
73315;SDS011;61545;53.726;-0.444;2022-08-07T00:14:22;4.2;;;1.1;;
73315;SDS011;61545;53.726;-0.444;2022-08-07T00:19:22;2.9;;;1;;
73315;SDS011;61545;53.726;-0.444;2022-08-07T00:24:22;2.1;;;1;;
73315;SDS011;61545;53.726;-0.444;2022-08-07T00:29:22;2.0;;;1;;
73315;SDS011;61545;53.726;-0.444;2022-08-07T00:34:22;4.6;;;1.6;;
73315;SDS011;61545;53.726;-0.444;2022-08-07T00:39:22;4.6;;;1.6;;
73315;SDS011;61545;53.726;-0.444;2022-08-07T00:44:22;5.0;;;1.3;;
73315;SDS011;61545;53.726;-0.444;2022-08-07T00:49:22;3.4;;;1.2;;
73315;SDS011;61545;53.726;-0.444;2022-08-07T00:54:22;3.2;;;1.3;;
73315;SDS011;61545;53.726;-0.444;2022-08-07T00:59:22;2.6;;;1.2;;
73315;SDS011;61545;53.726;-0.444;2022-08-07T01:04:22;3.8;;;1;;
73315;SDS011;61545;53.726;-0.444;2022-08-07T01:09:22;3.8;;;1;;
73315;SDS011;61545;53.726;-0.444;2022-08-07T01:14:22;1.5;;;0.9;;
73315;SDS011;61545;53.726;-0.444;2022-08-07T01:19:22;2.5;;;1.3;;
73315;SDS011;61545;53.726;-0.444;2022-08-07T01:24:22;3.0;;;1.2;;
73315;SDS011;61545;53.726;-0.444;2022-08-07T01:29:23;3.3;;;1.2;;
73315;SDS011;61545;53.726;-0.444;2022-08-07T01:34:22;4.0;;;1.4;;
73315;SDS011;61545;53.726;-0.444;2022-08-07T01:39:22;4.0;;;1.4;;
73315;SDS011;61545;53.726;-0.444;2022-08-07T01:44:22;3.5;;;1.3;;
73315;SDS011;61545;53.726;-0.444;2022-08-07T01:49:22;4.4;;;1.2;;
73315;SDS011;61545;53.726;-0.444;2022-08-07T01:54:22;3.7;;;1.5;;
73315;SDS011;61545;53.726;-0.444;2022-08-07T01:59:24;2.4;;;1.3;;
73315;SDS011;61545;53.726;-0.444;2022-08-07T02:04:24;6.0;;;1.6;;
73315;SDS011;61545;53.726;-0.444;2022-08-07T02:09:22;6.0;;;1.6;;
73315;SDS011;61545;53.726;-0.444;2022-08-07T02:14:22;2.9;;;1.6;;
73315;SDS011;61545;53.726;-0.444;2022-08-07T02:19:22;2.4;;;1.3;;
73315;SDS011;61545;53.726;-0.444;2022-08-07T02:24:22;6.2;;;1.9;;
73315;SDS011;61545;53.726;-0.444;2022-08-07T02:29:22;6.0;;;1.6;;
73315;SDS011;61545;53.726;-0.444;2022-08-07T02:34:22;3.1;;;1.5;;
73315;SDS011;61545;53.726;-0.444;2022-08-07T02:39:22;3.1;;;1.5;;
73315;SDS011;61545;53.726;-0.444;2022-08-07T02:44:22;3.0;;;1.6;;
73315;SDS011;61545;53.726;-0.444;2022-08-07T02:49:22;5.3;;;1.5;;
73315;SDS011;61545;53.726;-0.444;2022-08-07T02:54:22;4.5;;;1.8;;
73315;SDS011;61545;53.726;-0.444;2022-08-07T02:59:23;2.6;;;1.6;;
73315;SDS011;61545;53.726;-0.444;2022-08-07T03:04:22;3.4;;;1.7;;
73315;SDS011;61545;53.726;-0.444;2022-08-07T03:09:22;3.4;;;1.7;;
73315;SDS011;61545;53.726;-0.444;2022-08-07T03:14:22;2.9;;;1.4;;
73315;SDS011;61545;53.726;-0.444;2022-08-07T03:19:22;4.1;;;1.6;;
73315;SDS011;61545;53.726;-0.444;2022-08-07T03:24:22;2.5;;;1.4;;
73315;SDS011;61545;53.726;-0.444;2022-08-07T03:29:22;4.9;;;1.6;;
73315;SDS011;61545;53.726;-0.444;2022-08-07T03:34:22;4.2;;;1.8;;
73315;SDS011;61545;53.726;-0.444;2022-08-07T03:39:22;4.2;;;1.8;;
73315;SDS011;61545;53.726;-0.444;2022-08-07T03:44:22;3.0;;;1.7;;
73315;SDS011;61545;53.726;-0.444;2022-08-07T03:49:22;3.9;;;1.9;;
73315;SDS011;61545;53.726;-0.444;2022-08-07T03:54:22;2.8;;;1.5;;
73315;SDS011;61545;53.726;-0.444;2022-08-07T03:59:22;3.6;;;1.6;;
73315;SDS011;61545;53.726;-0.444;2022-08-07T04:04:22;3.4;;;1.8;;
73315;SDS011;61545;53.726;-0.444;2022-08-07T04:09:22;3.4;;;1.8;;
73315;SDS011;61545;53.726;-0.444;2022-08-07T04:14:22;3.6;;;1.7;;
73315;SDS011;61545;53.726;-0.444;2022-08-07T04:19:22;4.2;;;1.7;;
73315;SDS011;61545;53.726;-0.444;2022-08-07T04:24:22;4.5;;;1.9;;
73315;SDS011;61545;53.726;-0.444;2022-08-07T04:29:22;3.7;;;1.7;;
73315;SDS011;61545;53.726;-0.444;2022-08-07T04:34:22;4.5;;;1.7;;
73315;SDS011;61545;53.726;-0.444;2022-08-07T04:39:22;4.5;;;1.7;;
73315;SDS011;61545;53.726;-0.444;2022-08-07T04:44:22;2.8;;;1.4;;
73315;SDS011;61545;53.726;-0.444;2022-08-07T04:49:25;5.1;;;2.3;;
73315;SDS011;61545;53.726;-0.444;2022-08-07T04:54:26;8.1;;;2.8;;
73315;SDS011;61545;53.726;-0.444;2022-08-07T04:59:25;9.1;;;3.6;;
73315;SDS011;61545;53.726;-0.444;2022-08-07T05:04:28;8.1;;;3.3;;
73315;SDS011;61545;53.726;-0.444;2022-08-07T05:09:25;8.1;;;3.3;;
73315;SDS011;61545;53.726;-0.444;2022-08-07T05:14:25;10.9;;;2.7;;
73315;SDS011;61545;53.726;-0.444;2022-08-07T05:19:23;6.9;;;2.7;;
73315;SDS011;61545;53.726;-0.444;2022-08-07T05:24:22;5.3;;;2.2;;
73315;SDS011;61545;53.726;-0.444;2022-08-07T05:29:22;8.2;;;3;;
73315;SDS011;61545;53.726;-0.444;2022-08-07T05:34:22;7.9;;;3.3;;
73315;SDS011;61545;53.726;-0.444;2022-08-07T05:39:22;7.9;;;3.3;;
73315;SDS011;61545;53.726;-0.444;2022-08-07T05:44:22;5.5;;;2.4;;
73315;SDS011;61545;53.726;-0.444;2022-08-07T05:49:22;9.4;;;3.6;;
73315;SDS011;61545;53.726;-0.444;2022-08-07T05:54:22;7.5;;;3.2;;
73315;SDS011;61545;53.726;-0.444;2022-08-07T05:59:22;11.8;;;2.8;;
73315;SDS011;61545;53.726;-0.444;2022-08-07T06:04:22;10.4;;;3.9;;
73315;SDS011;61545;53.726;-0.444;2022-08-07T06:09:22;10.4;;;3.9;;
73315;SDS011;61545;53.726;-0.444;2022-08-07T06:14:22;8.3;;;3.7;;
73315;SDS011;61545;53.726;-0.444;2022-08-07T06:19:22;6.5;;;2.7;;
73315;SDS011;61545;53.726;-0.444;2022-08-07T06:24:22;8.9;;;4.2;;
73315;SDS011;61545;53.726;-0.444;2022-08-07T06:29:25;11.6;;;4.8;;
73315;SDS011;61545;53.726;-0.444;2022-08-07T06:34:22;6.1;;;3.1;;
73315;SDS011;61545;53.726;-0.444;2022-08-07T06:39:22;6.1;;;3.1;;
73315;SDS011;61545;53.726;-0.444;2022-08-07T06:44:22;10.3;;;4.1;;
73315;SDS011;61545;53.726;-0.444;2022-08-07T06:49:22;11.3;;;4.9;;
73315;SDS011;61545;53.726;-0.444;2022-08-07T06:54:22;13.2;;;4.3;;
73315;SDS011;61545;53.726;-0.444;2022-08-07T06:59:25;10.1;;;4.3;;
73315;SDS011;61545;53.726;-0.444;2022-08-07T07:04:22;11.5;;;4.3;;
73315;SDS011;61545;53.726;-0.444;2022-08-07T07:09:23;11.5;;;4.3;;
73315;SDS011;61545;53.726;-0.444;2022-08-07T07:14:23;8.9;;;3.5;;
73315;SDS011;61545;53.726;-0.444;2022-08-07T07:19:26;5.0;;;2.9;;
73315;SDS011;61545;53.726;-0.444;2022-08-07T07:24:22;6.4;;;3.4;;
73315;SDS011;61545;53.726;-0.444;2022-08-07T07:29:23;6.7;;;3;;
73315;SDS011;61545;53.726;-0.444;2022-08-07T07:34:23;5.6;;;2.3;;
73315;SDS011;61545;53.726;-0.444;2022-08-07T07:39:22;5.6;;;2.3;;
73315;SDS011;61545;53.726;-0.444;2022-08-07T07:44:22;8.5;;;3.5;;
73315;SDS011;61545;53.726;-0.444;2022-08-07T07:49:23;7.6;;;2.6;;
73315;SDS011;61545;53.726;-0.444;2022-08-07T07:54:22;7.9;;;2.8;;
73315;SDS011;61545;53.726;-0.444;2022-08-07T07:59:22;5.1;;;2.2;;
73315;SDS011;61545;53.726;-0.444;2022-08-07T08:04:22;7.3;;;2.2;;
73315;SDS011;61545;53.726;-0.444;2022-08-07T08:09:24;7.3;;;2.2;;
73315;SDS011;61545;53.726;-0.444;2022-08-07T08:14:22;7.3;;;2;;
73315;SDS011;61545;53.726;-0.444;2022-08-07T08:19:23;7.4;;;1.7;;
73315;SDS011;61545;53.726;-0.444;2022-08-07T08:24:22;4.8;;;1.6;;
73315;SDS011;61545;53.726;-0.444;2022-08-07T08:29:22;6.8;;;1.7;;
73315;SDS011;61545;53.726;-0.444;2022-08-07T08:34:22;5.9;;;1.3;;
73315;SDS011;61545;53.726;-0.444;2022-08-07T08:39:22;5.9;;;1.3;;
73315;SDS011;61545;53.726;-0.444;2022-08-07T08:44:24;4.9;;;1.3;;
73315;SDS011;61545;53.726;-0.444;2022-08-07T08:49:25;8.1;;;2;;
73315;SDS011;61545;53.726;-0.444;2022-08-07T08:54:25;7.3;;;1.4;;
73315;SDS011;61545;53.726;-0.444;2022-08-07T08:59:25;4.5;;;1.6;;
73315;SDS011;61545;53.726;-0.444;2022-08-07T09:04:25;4.5;;;1.6;;
73315;SDS011;61545;53.726;-0.444;2022-08-07T09:09:30;6.4;;;1.5;;
73315;SDS011;61545;53.726;-0.444;2022-08-07T09:14:26;5.5;;;1.4;;
73315;SDS011;61545;53.726;-0.444;2022-08-07T09:19:27;5.0;;;1.4;;
73315;SDS011;61545;53.726;-0.444;2022-08-07T09:24:28;8.6;;;1.7;;
73315;SDS011;61545;53.726;-0.444;2022-08-07T09:29:25;6.5;;;1.3;;
73315;SDS011;61545;53.726;-0.444;2022-08-07T09:34:24;6.5;;;1.3;;
73315;SDS011;61545;53.726;-0.444;2022-08-07T09:39:34;3.4;;;1.4;;
73315;SDS011;61545;53.726;-0.444;2022-08-07T09:44:27;4.9;;;1.6;;
73315;SDS011;61545;53.726;-0.444;2022-08-07T09:49:40;5.2;;;1.4;;
73315;SDS011;61545;53.726;-0.444;2022-08-07T09:54:25;7.4;;;1.4;;
73315;SDS011;61545;53.726;-0.444;2022-08-07T09:59:31;8.3;;;1.8;;
73315;SDS011;61545;53.726;-0.444;2022-08-07T10:04:36;8.3;;;1.8;;
73315;SDS011;61545;53.726;-0.444;2022-08-07T10:09:45;7.8;;;1.6;;
73315;SDS011;61545;53.726;-0.444;2022-08-07T10:14:31;6.3;;;1.6;;
73315;SDS011;61545;53.726;-0.444;2022-08-07T10:19:32;3.7;;;1.3;;
73315;SDS011;61545;53.726;-0.444;2022-08-07T10:24:29;6.5;;;1.8;;
73315;SDS011;61545;53.726;-0.444;2022-08-07T10:29:33;4.6;;;1.4;;
73315;SDS011;61545;53.726;-0.444;2022-08-07T10:34:29;4.6;;;1.4;;
73315;SDS011;61545;53.726;-0.444;2022-08-07T10:39:28;8.8;;;1.7;;
73315;SDS011;61545;53.726;-0.444;2022-08-07T10:44:24;8.7;;;2;;
73315;SDS011;61545;53.726;-0.444;2022-08-07T10:49:25;8.8;;;1.7;;
73315;SDS011;61545;53.726;-0.444;2022-08-07T10:54:36;4.9;;;1.3;;
73315;SDS011;61545;53.726;-0.444;2022-08-07T10:59:26;7.3;;;1.5;;
73315;SDS011;61545;53.726;-0.444;2022-08-07T11:04:30;7.3;;;1.5;;
73315;SDS011;61545;53.726;-0.444;2022-08-07T11:09:24;6.1;;;1.5;;
73315;SDS011;61545;53.726;-0.444;2022-08-07T11:14:24;8.9;;;1.4;;
73315;SDS011;61545;53.726;-0.444;2022-08-07T11:19:25;4.6;;;1.1;;
73315;SDS011;61545;53.726;-0.444;2022-08-07T11:24:27;4.9;;;1.4;;
73315;SDS011;61545;53.726;-0.444;2022-08-07T11:29:26;4.2;;;1.2;;
73315;SDS011;61545;53.726;-0.444;2022-08-07T11:34:25;4.2;;;1.2;;
73315;SDS011;61545;53.726;-0.444;2022-08-07T11:39:28;5.7;;;1.1;;
73315;SDS011;61545;53.726;-0.444;2022-08-07T11:44:27;4.6;;;1.2;;
73315;SDS011;61545;53.726;-0.444;2022-08-07T11:49:59;2.8;;;1.1;;
73315;SDS011;61545;53.726;-0.444;2022-08-07T11:54:32;5.1;;;1.2;;
73315;SDS011;61545;53.726;-0.444;2022-08-07T11:59:32;4.6;;;1.3;;
73315;SDS011;61545;53.726;-0.444;2022-08-07T12:04:31;4.6;;;1.3;;
73315;SDS011;61545;53.726;-0.444;2022-08-07T12:09:24;3.8;;;1.1;;
73315;SDS011;61545;53.726;-0.444;2022-08-07T12:14:24;7.3;;;1.1;;
73315;SDS011;61545;53.726;-0.444;2022-08-07T12:19:26;3.8;;;1.1;;
73315;SDS011;61545;53.726;-0.444;2022-08-07T12:24:26;5.5;;;1.5;;
73315;SDS011;61545;53.726;-0.444;2022-08-07T12:29:30;5.4;;;1.3;;
73315;SDS011;61545;53.726;-0.444;2022-08-07T12:34:22;5.4;;;1.3;;
73315;SDS011;61545;53.726;-0.444;2022-08-07T12:39:22;2.2;;;0.8;;
73315;SDS011;61545;53.726;-0.444;2022-08-07T12:44:22;5.5;;;1.4;;
73315;SDS011;61545;53.726;-0.444;2022-08-07T12:49:25;3.9;;;1;;
73315;SDS011;61545;53.726;-0.444;2022-08-07T12:54:24;3.9;;;1.1;;
73315;SDS011;61545;53.726;-0.444;2022-08-07T12:59:26;2.6;;;0.9;;
73315;SDS011;61545;53.726;-0.444;2022-08-07T13:04:28;2.6;;;0.9;;
73315;SDS011;61545;53.726;-0.444;2022-08-07T13:09:29;2.9;;;0.9;;
73315;SDS011;61545;53.726;-0.444;2022-08-07T13:14:28;4.0;;;0.9;;
73315;SDS011;61545;53.726;-0.444;2022-08-07T13:19:26;13.4;;;1.3;;
73315;SDS011;61545;53.726;-0.444;2022-08-07T13:24:24;6.1;;;1.5;;
73315;SDS011;61545;53.726;-0.444;2022-08-07T13:29:24;3.9;;;1.1;;
73315;SDS011;61545;53.726;-0.444;2022-08-07T13:34:25;3.9;;;1.1;;
73315;SDS011;61545;53.726;-0.444;2022-08-07T13:39:25;5.2;;;1.1;;
73315;SDS011;61545;53.726;-0.444;2022-08-07T13:44:23;4.0;;;0.8;;
73315;SDS011;61545;53.726;-0.444;2022-08-07T13:49:22;2.7;;;1;;
73315;SDS011;61545;53.726;-0.444;2022-08-07T13:54:27;3.1;;;0.9;;
73315;SDS011;61545;53.726;-0.444;2022-08-07T13:59:24;3.8;;;0.8;;
73315;SDS011;61545;53.726;-0.444;2022-08-07T14:04:23;3.8;;;0.8;;
73315;SDS011;61545;53.726;-0.444;2022-08-07T14:09:23;2.3;;;0.8;;
73315;SDS011;61545;53.726;-0.444;2022-08-07T14:14:25;4.8;;;0.8;;
73315;SDS011;61545;53.726;-0.444;2022-08-07T14:19:28;7.6;;;1.1;;
73315;SDS011;61545;53.726;-0.444;2022-08-07T14:24:25;3.2;;;0.7;;
73315;SDS011;61545;53.726;-0.444;2022-08-07T14:29:23;2.9;;;0.9;;
73315;SDS011;61545;53.726;-0.444;2022-08-07T14:34:23;2.9;;;0.9;;
73315;SDS011;61545;53.726;-0.444;2022-08-07T14:39:22;3.6;;;1;;
73315;SDS011;61545;53.726;-0.444;2022-08-07T14:44:22;5.4;;;0.9;;
73315;SDS011;61545;53.726;-0.444;2022-08-07T14:49:23;7.2;;;1.6;;
73315;SDS011;61545;53.726;-0.444;2022-08-07T14:54:22;3.5;;;0.9;;
73315;SDS011;61545;53.726;-0.444;2022-08-07T14:59:22;6.7;;;1.3;;
73315;SDS011;61545;53.726;-0.444;2022-08-07T15:04:22;6.7;;;1.3;;
73315;SDS011;61545;53.726;-0.444;2022-08-07T15:09:22;7.1;;;1;;
73315;SDS011;61545;53.726;-0.444;2022-08-07T15:14:23;5.9;;;1.2;;
73315;SDS011;61545;53.726;-0.444;2022-08-07T15:19:27;11.0;;;1.3;;
73315;SDS011;61545;53.726;-0.444;2022-08-07T15:24:24;2.5;;;1;;
73315;SDS011;61545;53.726;-0.444;2022-08-07T15:29:22;6.4;;;1.3;;
73315;SDS011;61545;53.726;-0.444;2022-08-07T15:34:22;6.4;;;1.3;;
73315;SDS011;61545;53.726;-0.444;2022-08-07T15:39:22;2.9;;;1.2;;
73315;SDS011;61545;53.726;-0.444;2022-08-07T15:44:22;4.6;;;1.1;;
73315;SDS011;61545;53.726;-0.444;2022-08-07T15:49:25;2.3;;;0.8;;
73315;SDS011;61545;53.726;-0.444;2022-08-07T15:54:22;3.7;;;1;;
73315;SDS011;61545;53.726;-0.444;2022-08-07T15:59:22;4.1;;;1.1;;
73315;SDS011;61545;53.726;-0.444;2022-08-07T16:04:26;4.1;;;1.1;;
73315;SDS011;61545;53.726;-0.444;2022-08-07T16:09:25;3.4;;;1.2;;
73315;SDS011;61545;53.726;-0.444;2022-08-07T16:14:32;3.7;;;1;;
73315;SDS011;61545;53.726;-0.444;2022-08-07T16:19:31;3.7;;;1.3;;
73315;SDS011;61545;53.726;-0.444;2022-08-07T16:24:27;3.5;;;1.1;;
73315;SDS011;61545;53.726;-0.444;2022-08-07T16:29:25;2.3;;;1;;
73315;SDS011;61545;53.726;-0.444;2022-08-07T16:34:26;2.3;;;1;;
73315;SDS011;61545;53.726;-0.444;2022-08-07T16:39:39;2.6;;;1;;
73315;SDS011;61545;53.726;-0.444;2022-08-07T16:44:58;6.2;;;1.1;;
73315;SDS011;61545;53.726;-0.444;2022-08-07T16:49:34;3.3;;;1;;
73315;SDS011;61545;53.726;-0.444;2022-08-07T16:54:28;3.2;;;0.8;;
73315;SDS011;61545;53.726;-0.444;2022-08-07T16:59:38;6.9;;;1.1;;
73315;SDS011;61545;53.726;-0.444;2022-08-07T17:04:31;6.9;;;1.1;;
73315;SDS011;61545;53.726;-0.444;2022-08-07T17:09:28;3.7;;;1.3;;
73315;SDS011;61545;53.726;-0.444;2022-08-07T17:14:26;4.0;;;1.7;;
73315;SDS011;61545;53.726;-0.444;2022-08-07T17:19:29;2.4;;;1.2;;
73315;SDS011;61545;53.726;-0.444;2022-08-07T17:24:32;2.9;;;1.2;;
73315;SDS011;61545;53.726;-0.444;2022-08-07T17:29:25;3.8;;;1;;
73315;SDS011;61545;53.726;-0.444;2022-08-07T17:34:37;3.8;;;1;;
73315;SDS011;61545;53.726;-0.444;2022-08-07T17:39:32;1.9;;;0.9;;
73315;SDS011;61545;53.726;-0.444;2022-08-07T17:44:23;3.7;;;1;;
73315;SDS011;61545;53.726;-0.444;2022-08-07T17:49:24;5.9;;;1.3;;
73315;SDS011;61545;53.726;-0.444;2022-08-07T17:54:23;6.5;;;1.1;;
73315;SDS011;61545;53.726;-0.444;2022-08-07T17:59:24;4.3;;;1.1;;
73315;SDS011;61545;53.726;-0.444;2022-08-07T18:04:27;4.3;;;1.1;;
73315;SDS011;61545;53.726;-0.444;2022-08-07T18:09:22;2.2;;;0.8;;
73315;SDS011;61545;53.726;-0.444;2022-08-07T18:14:26;4.5;;;1.1;;
73315;SDS011;61545;53.726;-0.444;2022-08-07T18:19:28;4.0;;;0.9;;
73315;SDS011;61545;53.726;-0.444;2022-08-07T18:24:26;2.7;;;1;;
73315;SDS011;61545;53.726;-0.444;2022-08-07T18:29:23;2.6;;;0.7;;
73315;SDS011;61545;53.726;-0.444;2022-08-07T18:34:31;2.6;;;0.7;;
73315;SDS011;61545;53.726;-0.444;2022-08-07T18:39:27;3.7;;;1;;
73315;SDS011;61545;53.726;-0.444;2022-08-07T18:44:30;4.1;;;1;;
73315;SDS011;61545;53.726;-0.444;2022-08-07T18:49:23;3.1;;;1;;
73315;SDS011;61545;53.726;-0.444;2022-08-07T18:54:24;3.1;;;0.9;;
73315;SDS011;61545;53.726;-0.444;2022-08-07T18:59:30;3.2;;;1.1;;
73315;SDS011;61545;53.726;-0.444;2022-08-07T19:04:27;3.2;;;1.1;;
73315;SDS011;61545;53.726;-0.444;2022-08-07T19:09:27;3.5;;;1;;
73315;SDS011;61545;53.726;-0.444;2022-08-07T19:14:35;3.8;;;0.9;;
73315;SDS011;61545;53.726;-0.444;2022-08-07T19:19:28;6.3;;;1.3;;
73315;SDS011;61545;53.726;-0.444;2022-08-07T19:24:25;5.2;;;1.2;;
73315;SDS011;61545;53.726;-0.444;2022-08-07T19:29:23;5.8;;;1.2;;
73315;SDS011;61545;53.726;-0.444;2022-08-07T19:34:23;5.8;;;1.2;;
73315;SDS011;61545;53.726;-0.444;2022-08-07T19:39:25;2.2;;;0.8;;
73315;SDS011;61545;53.726;-0.444;2022-08-07T19:44:25;3.2;;;0.9;;
73315;SDS011;61545;53.726;-0.444;2022-08-07T19:49:22;3.9;;;1.3;;
73315;SDS011;61545;53.726;-0.444;2022-08-07T19:54:22;4.4;;;0.9;;
73315;SDS011;61545;53.726;-0.444;2022-08-07T19:59:25;3.6;;;0.8;;
73315;SDS011;61545;53.726;-0.444;2022-08-07T20:04:24;3.6;;;0.8;;
73315;SDS011;61545;53.726;-0.444;2022-08-07T20:09:22;6.9;;;1;;
73315;SDS011;61545;53.726;-0.444;2022-08-07T20:14:23;3.6;;;1;;
73315;SDS011;61545;53.726;-0.444;2022-08-07T20:19:25;2.9;;;0.9;;
73315;SDS011;61545;53.726;-0.444;2022-08-07T20:24:23;7.5;;;1.1;;
73315;SDS011;61545;53.726;-0.444;2022-08-07T20:29:23;3.7;;;0.9;;
73315;SDS011;61545;53.726;-0.444;2022-08-07T20:34:24;3.7;;;0.9;;
73315;SDS011;61545;53.726;-0.444;2022-08-07T20:39:25;3.3;;;1.1;;
73315;SDS011;61545;53.726;-0.444;2022-08-07T20:44:26;2.8;;;1.2;;
73315;SDS011;61545;53.726;-0.444;2022-08-07T20:49:22;4.2;;;1.1;;
73315;SDS011;61545;53.726;-0.444;2022-08-07T20:54:23;4.0;;;1;;
73315;SDS011;61545;53.726;-0.444;2022-08-07T20:59:24;5.7;;;1.2;;
73315;SDS011;61545;53.726;-0.444;2022-08-07T21:04:24;5.7;;;1.2;;
73315;SDS011;61545;53.726;-0.444;2022-08-07T21:09:28;3.3;;;1;;
73315;SDS011;61545;53.726;-0.444;2022-08-07T21:14:25;4.5;;;1;;
73315;SDS011;61545;53.726;-0.444;2022-08-07T21:19:24;5.2;;;1.3;;
73315;SDS011;61545;53.726;-0.444;2022-08-07T21:24:25;7.0;;;1.9;;
73315;SDS011;61545;53.726;-0.444;2022-08-07T21:29:25;7.5;;;1.4;;
73315;SDS011;61545;53.726;-0.444;2022-08-07T21:34:26;7.5;;;1.4;;
73315;SDS011;61545;53.726;-0.444;2022-08-07T21:39:27;4.8;;;1;;
73315;SDS011;61545;53.726;-0.444;2022-08-07T21:44:24;4.7;;;1.2;;
73315;SDS011;61545;53.726;-0.444;2022-08-07T21:49:25;5.4;;;1.4;;
73315;SDS011;61545;53.726;-0.444;2022-08-07T21:54:26;7.0;;;1.4;;
73315;SDS011;61545;53.726;-0.444;2022-08-07T21:59:29;6.2;;;1.8;;
73315;SDS011;61545;53.726;-0.444;2022-08-07T22:04:24;6.2;;;1.8;;
73315;SDS011;61545;53.726;-0.444;2022-08-07T22:09:22;4.3;;;1.3;;
73315;SDS011;61545;53.726;-0.444;2022-08-07T22:14:22;6.8;;;1.8;;
73315;SDS011;61545;53.726;-0.444;2022-08-07T22:19:24;3.9;;;1.5;;
73315;SDS011;61545;53.726;-0.444;2022-08-07T22:24:28;8.2;;;2.1;;
73315;SDS011;61545;53.726;-0.444;2022-08-07T22:29:24;5.4;;;1.7;;
73315;SDS011;61545;53.726;-0.444;2022-08-07T22:34:24;5.4;;;1.7;;
73315;SDS011;61545;53.726;-0.444;2022-08-07T22:39:25;3.2;;;1.3;;
73315;SDS011;61545;53.726;-0.444;2022-08-07T22:44:23;5.9;;;1.6;;
73315;SDS011;61545;53.726;-0.444;2022-08-07T22:49:30;5.8;;;1.7;;
73315;SDS011;61545;53.726;-0.444;2022-08-07T22:54:32;5.8;;;1.6;;
73315;SDS011;61545;53.726;-0.444;2022-08-07T22:59:42;5.8;;;1.6;;
73315;SDS011;61545;53.726;-0.444;2022-08-07T23:04:34;4.8;;;1.4;;
73315;SDS011;61545;53.726;-0.444;2022-08-07T23:09:29;3.6;;;1.5;;
73315;SDS011;61545;53.726;-0.444;2022-08-07T23:14:30;8.4;;;1.9;;
73315;SDS011;61545;53.726;-0.444;2022-08-07T23:19:27;7.2;;;1.9;;
73315;SDS011;61545;53.726;-0.444;2022-08-07T23:24:30;5.4;;;1.7;;
73315;SDS011;61545;53.726;-0.444;2022-08-07T23:29:30;5.4;;;1.7;;
73315;SDS011;61545;53.726;-0.444;2022-08-07T23:34:29;3.8;;;1.5;;
73315;SDS011;61545;53.726;-0.444;2022-08-07T23:39:26;5.3;;;1.7;;
73315;SDS011;61545;53.726;-0.444;2022-08-07T23:44:33;4.5;;;1.5;;
73315;SDS011;61545;53.726;-0.444;2022-08-07T23:49:41;5.5;;;1.8;;
73315;SDS011;61545;53.726;-0.444;2022-08-07T23:54:25;7.0;;;1.6;;
73315;SDS011;61545;53.726;-0.444;2022-08-07T23:59:27;7.0;;;1.6;;
